Time;durP1;ratioP1;P1;durP2;ratioP2;P2;SDS_P1;SDS_P2;PMS_P1;PMS_P2;Temp;Humidity;BMP_temperature;BMP_pressure;BME280_temperature;BME280_humidity;BME280_pressure;Samples;Min_cycle;Max_cycle;Signal;HPM_P1;HPM_P2
2023/10/21 00:00:38;;;;;;;;;;;;;;;16.07;100.00;97997.25;5056047;28;19921;-65
2023/10/21 00:03:05;;;;;;;;;;;;;;;16.30;100.00;98002.91;5053652;28;19920;-64
2023/10/21 00:05:33;;;;;;;;;;;;;;;16.27;100.00;97993.41;5054658;28;19920;-65
2023/10/21 00:08:00;;;;;;;;;;;;;;;16.36;100.00;97995.66;5056651;28;19927;-65
2023/10/21 00:10:28;;;;;;;;;;;;;;;16.42;99.94;98005.13;5051568;28;19932;-65
2023/10/21 00:12:55;;;;;;;;;;;;;;;16.27;100.00;98012.06;5054681;28;19939;-64
2023/10/21 00:15:23;;;;;;;;;;;;;;;16.21;100.00;98019.28;5055773;28;19921;-64
2023/10/21 00:17:50;;;;;;;;;;;;;;;16.39;100.00;98026.19;5055824;28;19943;-65
2023/10/21 00:20:17;;;;;;;;;;;;;;;16.36;99.16;98029.00;5038206;28;19925;-64
2023/10/21 00:22:44;;;;;;;;;;;;;;;16.19;98.50;98039.16;5055050;28;19924;-65
2023/10/21 00:25:11;;;;;;;;;;;;;;;16.19;97.29;98038.34;5056266;28;19932;-66
2023/10/21 00:27:38;;;;;;;;;;;;;;;16.02;94.68;98067.91;5053977;28;19941;-64
2023/10/21 00:30:06;;;;;;;;;;;;;;;15.98;95.06;98069.13;5055583;28;20491;-65
2023/10/21 00:32:33;;;;;;;;;;;;;;;15.82;95.14;98064.16;5052106;28;19928;-64
2023/10/21 00:35:01;;;;;;;;;;;;;;;15.89;94.65;98079.94;5056271;28;19920;-64
2023/10/21 00:37:31;;;;;;;;;;;;;;;15.90;93.60;98078.75;5033460;28;19920;-64
2023/10/21 00:39:58;;;;;;;;;;;;;;;15.97;92.86;98098.88;5054935;28;20548;-64
2023/10/21 00:42:29;;;;;;;;;;;;;;;16.01;91.40;98091.31;5036419;28;20057;-65
2023/10/21 00:44:56;;;;;;;;;;;;;;;16.03;90.99;98102.00;5049043;28;19936;-64
2023/10/21 00:47:24;;;;;;;;;;;;;;;15.99;91.61;98104.03;5017637;28;19926;-64
2023/10/21 00:49:52;;;;;;;;;;;;;;;16.07;90.91;98116.66;5035133;28;19920;-65
2023/10/21 00:52:24;;;;;;;;;;;;;;;15.91;91.52;98121.97;5017945;28;19921;-64
2023/10/21 00:54:51;;;;;;;;;;;;;;;15.89;91.54;98127.94;5055689;28;19936;-64
2023/10/21 00:57:18;;;;;;;;;;;;;;;15.92;91.29;98137.44;5035802;28;19939;-64
2023/10/21 00:59:46;;;;;;;;;;;;;;;15.84;91.67;98150.56;5036327;28;19921;-64
2023/10/21 01:02:13;;;;;;;;;;;;;;;15.67;92.31;98143.97;5053803;28;19924;-64
2023/10/21 01:04:40;;;;;;;;;;;;;;;15.55;92.93;98163.13;4999298;28;19928;-66
2023/10/21 01:07:15;;;;;;;;;;;;;;;15.67;91.67;98165.41;5020474;28;19921;-63
2023/10/21 01:09:43;;;;;;;;;;;;;;;15.44;92.96;98173.50;5054765;28;21491;-64
2023/10/21 01:12:10;;;;;;;;;;;;;;;15.62;92.86;98169.38;5051784;28;19936;-64
2023/10/21 01:14:37;;;;;;;;;;;;;;;15.41;93.15;98180.63;5037106;28;19944;-63
2023/10/21 01:17:04;;;;;;;;;;;;;;;15.47;93.53;98189.31;5055195;28;19920;-64
2023/10/21 01:19:32;;;;;;;;;;;;;;;15.69;91.06;98185.22;5033664;28;19928;-63
2023/10/21 01:21:59;;;;;;;;;;;;;;;15.71;90.40;98193.91;5054383;28;19924;-64
2023/10/21 01:24:27;;;;;;;;;;;;;;;15.59;89.78;98195.19;5037157;28;19921;-64
2023/10/21 01:26:55;;;;;;;;;;;;;;;15.26;89.91;98201.31;5023218;28;19936;-63
2023/10/21 01:29:50;;;;;;;;;;;;;;;15.35;90.07;98206.41;5055675;28;20303;-73
2023/10/21 01:32:27;;;;;;;;;;;;;;;15.39;90.23;98216.31;5054526;28;19929;-72
2023/10/21 01:34:54;;;;;;;;;;;;;;;15.68;88.27;98219.69;5037559;28;19935;-73
2023/10/21 01:37:22;;;;;;;;;;;;;;;15.41;86.69;98219.47;5037488;28;20442;-72
2023/10/21 01:39:48;;;;;;;;;;;;;;;15.53;86.62;98227.31;5054581;28;20371;-74
2023/10/21 01:42:16;;;;;;;;;;;;;;;15.61;86.09;98234.41;5035726;28;19936;-72
2023/10/21 01:44:43;;;;;;;;;;;;;;;15.37;86.32;98234.53;5051144;28;19931;-71
2023/10/21 01:47:10;;;;;;;;;;;;;;;15.60;86.78;98248.69;5051341;28;19920;-70
2023/10/21 01:49:38;;;;;;;;;;;;;;;15.56;86.38;98248.72;5054222;28;19947;-72
2023/10/21 01:52:05;;;;;;;;;;;;;;;15.60;86.71;98254.25;5019294;28;19921;-72
2023/10/21 01:54:32;;;;;;;;;;;;;;;15.56;86.38;98254.28;4998478;28;19921;-71
2023/10/21 01:56:59;;;;;;;;;;;;;;;15.55;86.73;98252.69;5010151;28;19925;-71
2023/10/21 01:59:27;;;;;;;;;;;;;;;15.51;86.94;98260.25;5025238;28;20424;-72
2023/10/21 02:01:54;;;;;;;;;;;;;;;15.35;87.58;98259.13;5019751;28;19996;-71
2023/10/21 02:04:21;;;;;;;;;;;;;;;15.48;88.26;98260.28;5052763;28;19921;-72
2023/10/21 02:06:48;;;;;;;;;;;;;;;15.64;87.91;98260.56;5051980;28;19947;-72
2023/10/21 02:09:15;;;;;;;;;;;;;;;15.61;87.46;98262.16;5053046;28;20399;-72
2023/10/21 02:11:42;;;;;;;;;;;;;;;15.57;87.46;98261.38;5036516;28;19924;-71
2023/10/21 02:14:10;;;;;;;;;;;;;;;15.29;87.71;98269.84;5036233;28;19927;-71
2023/10/21 02:16:37;;;;;;;;;;;;;;;15.22;87.25;98272.63;5018592;28;19924;-71
2023/10/21 02:19:04;;;;;;;;;;;;;;;15.21;88.13;98273.06;5054200;28;19948;-72
2023/10/21 02:21:31;;;;;;;;;;;;;;;15.41;86.92;98282.50;5053800;28;19928;-72
2023/10/21 02:23:58;;;;;;;;;;;;;;;15.31;86.12;98284.09;5036418;28;19924;-71
2023/10/21 02:26:26;;;;;;;;;;;;;;;15.16;87.00;98284.56;5035528;28;20380;-72
2023/10/21 02:28:53;;;;;;;;;;;;;;;15.36;86.50;98294.75;5032450;28;19928;-72
2023/10/21 02:31:20;;;;;;;;;;;;;;;15.31;84.98;98286.88;5050389;28;19940;-71
2023/10/21 02:33:47;;;;;;;;;;;;;;;15.45;85.41;98297.13;5048935;28;19921;-71
2023/10/21 02:36:15;;;;;;;;;;;;;;;15.42;84.54;98300.72;5053746;28;20430;-71
2023/10/21 02:38:42;;;;;;;;;;;;;;;15.28;84.65;98315.41;5052689;28;20000;-72
2023/10/21 02:41:09;;;;;;;;;;;;;;;15.42;84.00;98314.59;5034932;28;19932;-71
2023/10/21 02:43:36;;;;;;;;;;;;;;;15.26;83.27;98315.03;5034277;28;19921;-71
2023/10/21 02:46:09;;;;;;;;;;;;;;;15.21;83.54;98320.19;5033959;28;19928;-73
2023/10/21 02:48:40;;;;;;;;;;;;;;;15.24;83.43;98327.69;5043884;28;19932;-72
2023/10/21 02:51:17;;;;;;;;;;;;;;;15.21;82.53;98331.28;5032295;28;19925;-72
2023/10/21 02:53:44;;;;;;;;;;;;;;;15.10;83.11;98331.31;5041429;28;20035;-72
2023/10/21 02:56:13;;;;;;;;;;;;;;;15.16;82.93;98328.94;5033535;28;19935;-72
2023/10/21 02:58:40;;;;;;;;;;;;;;;15.06;82.32;98324.22;5034435;28;19920;-72
2023/10/21 03:01:14;;;;;;;;;;;;;;;14.94;83.16;98332.97;5032883;28;19944;-71
2023/10/21 03:03:42;;;;;;;;;;;;;;;15.08;83.09;98336.47;5046410;28;19928;-73
2023/10/21 03:06:09;;;;;;;;;;;;;;;15.07;83.43;98346.00;5046416;28;19937;-73
2023/10/21 03:08:37;;;;;;;;;;;;;;;15.23;83.28;98351.91;5035346;28;19925;-73
2023/10/21 03:11:04;;;;;;;;;;;;;;;15.16;82.63;98356.66;5033177;28;19921;-72
2023/10/21 03:13:32;;;;;;;;;;;;;;;15.13;82.78;98355.47;5052626;28;19932;-73
2023/10/21 03:15:59;;;;;;;;;;;;;;;14.97;83.20;98355.13;5052526;28;19928;-73
2023/10/21 03:18:26;;;;;;;;;;;;;;;14.86;84.08;98367.41;5052499;28;20516;-72
2023/10/21 03:20:54;;;;;;;;;;;;;;;15.24;82.20;98372.06;5052617;28;19927;-70
2023/10/21 03:23:21;;;;;;;;;;;;;;;14.98;83.32;98369.75;5020170;28;19932;-71
2023/10/21 03:25:54;;;;;;;;;;;;;;;14.96;83.65;98369.41;5032257;28;20416;-71
2023/10/21 03:28:22;;;;;;;;;;;;;;;14.78;84.30;98374.16;5051645;28;19928;-73
2023/10/21 03:30:49;;;;;;;;;;;;;;;14.90;84.40;98366.25;5053510;28;19925;-71
2023/10/21 03:33:17;;;;;;;;;;;;;;;14.92;83.29;98380.50;5008913;28;19921;-72
2023/10/21 03:35:53;;;;;;;;;;;;;;;14.91;82.95;98378.09;5049692;28;20408;-72
2023/10/21 03:38:21;;;;;;;;;;;;;;;14.87;84.08;98391.97;5036197;28;19931;-73
2023/10/21 03:41:00;;;;;;;;;;;;;;;14.91;83.40;98384.44;5019395;28;19920;-72
2023/10/21 03:43:28;;;;;;;;;;;;;;;14.84;83.83;98395.53;5050582;28;19995;-72
2023/10/21 03:45:56;;;;;;;;;;;;;;;14.79;84.25;98392.38;5031088;28;19928;-71
2023/10/21 03:48:23;;;;;;;;;;;;;;;14.80;84.44;98394.75;5034510;28;19947;-71
2023/10/21 03:50:50;;;;;;;;;;;;;;;14.67;84.04;98399.13;5052594;28;19924;-73
2023/10/21 03:53:18;;;;;;;;;;;;;;;14.71;84.54;98405.47;5053312;28;20292;-72
2023/10/21 03:55:45;;;;;;;;;;;;;;;14.55;84.91;98408.63;5052608;28;20443;-73
2023/10/21 03:58:13;;;;;;;;;;;;;;;14.58;84.95;98395.94;5052849;28;19921;-71
2023/10/21 04:00:40;;;;;;;;;;;;;;;14.68;84.81;98405.47;5034542;28;19920;-72
2023/10/21 04:03:07;;;;;;;;;;;;;;;14.72;83.67;98404.25;5053098;28;19947;-71
2023/10/21 04:05:35;;;;;;;;;;;;;;;14.91;82.54;98408.59;5032229;28;20328;-72
2023/10/21 04:08:05;;;;;;;;;;;;;;;14.76;82.38;98431.97;5048174;28;19924;-72
2023/10/21 04:10:32;;;;;;;;;;;;;;;14.48;83.13;98424.44;5052710;28;19921;-73
2023/10/21 04:13:01;;;;;;;;;;;;;;;14.55;83.15;98438.31;5052950;28;20721;-72
2023/10/21 04:15:28;;;;;;;;;;;;;;;14.58;83.07;98434.72;5034371;28;19936;-71
2023/10/21 04:17:55;;;;;;;;;;;;;;;14.55;83.16;98438.31;5032862;28;19935;-73
2023/10/21 04:20:23;;;;;;;;;;;;;;;14.48;82.32;98443.84;5050216;28;19932;-71
2023/10/21 04:22:50;;;;;;;;;;;;;;;14.41;83.75;98447.41;5050758;28;20562;-72
2023/10/21 04:25:17;;;;;;;;;;;;;;;14.65;83.21;98451.38;5055995;28;19921;-72
2023/10/21 04:27:44;;;;;;;;;;;;;;;14.56;82.49;98448.19;5054969;28;20556;-73
2023/10/21 04:30:12;;;;;;;;;;;;;;;14.68;82.10;98452.56;5054357;28;19932;-71
2023/10/21 04:32:40;;;;;;;;;;;;;;;14.75;82.03;98455.34;5035628;28;19921;-72
2023/10/21 04:35:10;;;;;;;;;;;;;;;14.84;82.29;98472.34;5051282;28;19925;-71
2023/10/21 04:37:37;;;;;;;;;;;;;;;14.59;82.77;98458.50;5054050;28;19924;-72
2023/10/21 04:40:05;;;;;;;;;;;;;;;14.74;82.54;98467.59;5014110;28;19921;-71
2023/10/21 04:42:32;;;;;;;;;;;;;;;14.77;82.54;98464.81;5035731;28;19921;-72
2023/10/21 04:44:59;;;;;;;;;;;;;;;14.88;81.83;98478.69;5037353;28;19924;-72
2023/10/21 04:47:27;;;;;;;;;;;;;;;14.68;82.23;98481.84;5053922;28;19921;-71
2023/10/21 04:49:55;;;;;;;;;;;;;;;14.64;82.47;98491.34;5053225;28;19925;-72
2023/10/21 04:52:22;;;;;;;;;;;;;;;14.80;82.87;98493.75;5054324;28;19947;-72
2023/10/21 04:54:50;;;;;;;;;;;;;;;14.75;82.56;98503.22;5050616;28;19924;-69
2023/10/21 04:57:17;;;;;;;;;;;;;;;14.65;83.36;98506.78;5052715;28;19931;-72
2023/10/21 04:59:44;;;;;;;;;;;;;;;14.70;82.94;98497.31;5035329;28;19928;-72
2023/10/21 05:02:11;;;;;;;;;;;;;;;14.80;82.60;98502.84;5034808;28;19931;-69
2023/10/21 05:04:39;;;;;;;;;;;;;;;14.55;83.20;98502.81;5053329;28;19947;-72
2023/10/21 05:07:06;;;;;;;;;;;;;;;14.49;83.12;98512.69;5052693;28;19928;-72
2023/10/21 05:09:33;;;;;;;;;;;;;;;14.51;83.97;98521.41;5052379;28;19920;-72
2023/10/21 05:12:01;;;;;;;;;;;;;;;14.37;83.96;98518.59;5052471;28;19921;-73
2023/10/21 05:14:28;;;;;;;;;;;;;;;14.50;84.31;98521.81;5054274;28;19925;-73
2023/10/21 05:16:55;;;;;;;;;;;;;;;14.53;83.98;98519.03;5053128;28;19931;-72
2023/10/21 05:19:23;;;;;;;;;;;;;;;14.78;83.89;98532.94;5033227;28;20296;-72
2023/10/21 05:21:50;;;;;;;;;;;;;;;14.58;83.26;98531.69;5052100;28;19921;-71
2023/10/21 05:24:17;;;;;;;;;;;;;;;14.52;84.25;98544.38;5036146;28;19921;-71
2023/10/21 05:26:44;;;;;;;;;;;;;;;14.71;83.71;98540.44;5053820;28;19924;-70
2023/10/21 05:29:12;;;;;;;;;;;;;;;14.67;83.60;98543.19;5052517;28;19931;-71
2023/10/21 05:31:39;;;;;;;;;;;;;;;14.56;84.32;98542.38;5049896;28;19928;-71
2023/10/21 05:34:06;;;;;;;;;;;;;;;14.54;84.39;98547.50;5051420;28;20388;-71
2023/10/21 05:36:33;;;;;;;;;;;;;;;14.56;84.01;98536.84;5048879;28;20268;-71
2023/10/21 05:39:00;;;;;;;;;;;;;;;14.71;84.10;98543.22;5053710;28;19920;-70
2023/10/21 05:41:30;;;;;;;;;;;;;;;14.81;83.52;98557.09;5049156;28;20016;-71
2023/10/21 05:43:57;;;;;;;;;;;;;;;14.64;83.17;98560.63;5053342;28;19921;-71
2023/10/21 05:46:24;;;;;;;;;;;;;;;14.55;83.07;98549.91;5053110;28;20312;-72
2023/10/21 05:48:51;;;;;;;;;;;;;;;14.55;83.49;98557.44;5051974;28;19921;-70
2023/10/21 05:51:19;;;;;;;;;;;;;;;14.33;84.20;98555.78;5053182;28;19924;-72
2023/10/21 05:53:46;;;;;;;;;;;;;;;14.36;84.45;98561.34;5053625;28;19928;-70
2023/10/21 05:56:15;;;;;;;;;;;;;;;14.46;84.21;98557.00;5053120;28;19932;-70
2023/10/21 05:58:42;;;;;;;;;;;;;;;14.50;83.87;98560.59;5053171;28;19943;-72
2023/10/21 06:01:10;;;;;;;;;;;;;;;14.48;83.44;98560.97;5034704;28;20279;-73
2023/10/21 06:03:39;;;;;;;;;;;;;;;14.61;83.65;98572.47;5052320;28;19959;-71
2023/10/21 06:06:07;;;;;;;;;;;;;;;14.44;84.29;98567.66;5031463;28;20324;-73
2023/10/21 06:08:35;;;;;;;;;;;;;;;14.44;84.98;98568.47;5053886;28;19950;-71
2023/10/21 06:11:02;;;;;;;;;;;;;;;14.51;85.12;98576.81;5053093;28;19920;-71
2023/10/21 06:13:29;;;;;;;;;;;;;;;14.52;84.87;98569.28;5034990;28;20443;-71
2023/10/21 06:15:56;;;;;;;;;;;;;;;14.68;84.00;98571.72;5052707;28;19927;-70
2023/10/21 06:18:23;;;;;;;;;;;;;;;14.63;84.11;98578.41;5033497;28;19932;-72
2023/10/21 06:20:50;;;;;;;;;;;;;;;14.60;82.91;98577.22;5034943;28;20497;-71
2023/10/21 06:23:18;;;;;;;;;;;;;;;14.47;83.76;98589.06;5027521;28;19932;-71
2023/10/21 06:25:45;;;;;;;;;;;;;;;14.55;83.91;98582.34;5052518;28;20492;-72
2023/10/21 06:28:13;;;;;;;;;;;;;;;14.45;83.85;98586.66;5054000;28;19920;-71
2023/10/21 06:30:40;;;;;;;;;;;;;;;14.32;85.08;98574.38;5034703;28;20327;-72
2023/10/21 06:33:09;;;;;;;;;;;;;;;14.34;83.78;98588.63;5052417;28;19947;-63
2023/10/21 06:35:39;;;;;;;;;;;;;;;14.26;83.18;98584.22;5052892;28;19921;-63
2023/10/21 06:38:07;;;;;;;;;;;;;;;14.59;83.53;98591.47;5030793;28;20416;-62
2023/10/21 06:40:34;;;;;;;;;;;;;;;14.39;83.31;98601.28;5052383;28;20339;-64
2023/10/21 06:43:21;;;;;;;;;;;;;;;14.46;83.42;98604.91;5049820;28;19925;-62
2023/10/21 06:45:52;;;;;;;;;;;;;;;14.44;82.11;98614.75;5052183;28;19921;-63
2023/10/21 06:48:19;;;;;;;;;;;;;;;14.53;82.33;98615.19;5033348;28;19921;-63
2023/10/21 06:50:47;;;;;;;;;;;;;;;14.58;81.99;98626.69;5052936;28;20656;-63
2023/10/21 06:53:15;;;;;;;;;;;;;;;14.63;81.42;98622.75;5028241;28;19924;-63
2023/10/21 06:55:45;;;;;;;;;;;;;;;14.58;81.00;98621.16;5001080;28;19936;-63
2023/10/21 06:58:12;;;;;;;;;;;;;;;14.52;81.58;98619.16;5050803;28;19940;-63
2023/10/21 07:00:39;;;;;;;;;;;;;;;14.54;80.89;98627.84;5050119;28;20400;-63
2023/10/21 07:03:07;;;;;;;;;;;;;;;14.61;81.03;98630.66;5027055;28;19928;-63
2023/10/21 07:06:01;;;;;;;;;;;;;;;14.78;80.64;98637.44;5048776;28;19921;-66
2023/10/21 07:08:28;;;;;;;;;;;;;;;14.86;79.11;98633.50;5045798;28;19920;-63
2023/10/21 07:10:55;;;;;;;;;;;;;;;14.82;79.42;98633.50;5032486;28;20491;-63
2023/10/21 07:13:22;;;;;;;;;;;;;;;14.62;79.54;98637.81;5049901;28;19925;-62
2023/10/21 07:15:51;;;;;;;;;;;;;;;14.75;79.49;98652.09;5051084;28;19931;-63
2023/10/21 07:18:18;;;;;;;;;;;;;;;14.95;79.18;98656.91;5014058;28;19921;-61
2023/10/21 07:20:56;;;;;;;;;;;;;;;14.87;78.64;98666.38;5036068;28;19924;-64
2023/10/21 07:23:23;;;;;;;;;;;;;;;14.99;77.75;98657.72;5051811;28;19955;-62
2023/10/21 07:25:51;;;;;;;;;;;;;;;14.91;77.80;98672.72;5033027;28;19944;-63
2023/10/21 07:28:18;;;;;;;;;;;;;;;14.93;78.49;98662.03;5051207;28;19943;-63
2023/10/21 07:30:45;;;;;;;;;;;;;;;14.83;78.17;98684.19;5033758;28;19931;-61
2023/10/21 07:33:13;;;;;;;;;;;;;;;14.98;78.17;98681.06;5049117;28;19927;-63
2023/10/21 07:35:42;;;;;;;;;;;;;;;14.98;78.65;98683.03;5012889;28;20389;-64
2023/10/21 07:38:09;;;;;;;;;;;;;;;15.15;78.29;98685.84;5048828;28;19921;-63
2023/10/21 07:41:12;;;;;;;;;;;;;;;15.00;77.59;98680.66;5030169;28;19921;-72
2023/10/21 07:43:39;;;;;;;;;;;;;;;14.82;77.61;98688.16;5049920;28;19921;-71
2023/10/21 07:46:06;;;;;;;;;;;;;;;15.10;77.28;98686.25;5051780;28;19921;-70
2023/10/21 07:48:33;;;;;;;;;;;;;;;14.92;77.34;98690.97;5049798;28;20034;-70
2023/10/21 07:51:01;;;;;;;;;;;;;;;14.96;77.92;98699.28;5056491;28;19921;-72
2023/10/21 07:53:29;;;;;;;;;;;;;;;15.09;77.24;98694.97;5050353;28;19925;-72
2023/10/21 07:55:56;;;;;;;;;;;;;;;15.16;76.76;98693.00;5055426;28;19921;-72
2023/10/21 07:58:24;;;;;;;;;;;;;;;14.99;76.20;98696.53;5034678;28;19921;-72
2023/10/21 08:00:51;;;;;;;;;;;;;;;14.98;76.63;98678.28;5038074;28;19952;-72
2023/10/21 08:03:19;;;;;;;;;;;;;;;15.02;77.05;98686.63;5055394;28;19924;-71
2023/10/21 08:05:47;;;;;;;;;;;;;;;15.19;76.20;98686.66;5035824;28;19928;-72
2023/10/21 08:08:14;;;;;;;;;;;;;;;15.22;75.56;98702.50;5033618;28;19963;-72
2023/10/21 08:10:41;;;;;;;;;;;;;;;15.11;76.46;98698.94;5053485;28;19921;-70
2023/10/21 08:13:08;;;;;;;;;;;;;;;15.06;76.80;98704.88;5055058;28;20024;-73
2023/10/21 08:15:36;;;;;;;;;;;;;;;15.16;75.82;98690.22;5035758;28;19921;-73
2023/10/21 08:18:03;;;;;;;;;;;;;;;15.37;75.35;98698.59;5033792;28;20398;-71
2023/10/21 08:20:30;;;;;;;;;;;;;;;15.24;75.39;98693.78;5054761;28;19943;-73
2023/10/21 08:22:57;;;;;;;;;;;;;;;15.36;75.13;98690.69;5055657;28;19928;-71
2023/10/21 08:25:25;;;;;;;;;;;;;;;15.29;75.30;98705.31;5035446;28;19935;-71
2023/10/21 08:27:52;;;;;;;;;;;;;;;15.33;74.97;98705.31;5037333;28;19921;-71
2023/10/21 08:30:20;;;;;;;;;;;;;;;15.35;74.81;98702.94;5037139;28;19920;-71
2023/10/21 08:32:48;;;;;;;;;;;;;;;15.42;73.98;98709.34;5036741;28;19924;-72
2023/10/21 08:35:18;;;;;;;;;;;;;;;15.12;75.43;98706.06;5053248;28;20439;-72
2023/10/21 08:37:45;;;;;;;;;;;;;;;15.24;75.78;98702.13;5050262;28;19925;-72
2023/10/21 08:40:12;;;;;;;;;;;;;;;15.31;73.95;98700.16;5017178;28;19928;-71
2023/10/21 08:42:40;;;;;;;;;;;;;;;15.34;73.93;98712.47;5001223;28;19920;-71
2023/10/21 08:45:10;;;;;;;;;;;;;;;15.45;74.45;98716.88;5051800;28;19921;-72
2023/10/21 08:47:39;;;;;;;;;;;;;;;15.30;73.91;98712.47;5052108;28;20392;-73
2023/10/21 08:50:09;;;;;;;;;;;;;;;15.34;74.55;98712.47;5050605;28;19928;-72
2023/10/21 08:52:36;;;;;;;;;;;;;;;15.36;74.59;98708.09;5033190;28;19921;-71
2023/10/21 08:55:05;;;;;;;;;;;;;;;15.56;74.13;98722.44;5053447;28;19920;-72
2023/10/21 08:57:33;;;;;;;;;;;;;;;15.75;73.33;98717.28;5033572;28;20519;-71
2023/10/21 09:00:00;;;;;;;;;;;;;;;15.79;73.05;98714.53;5035099;28;19924;-72
2023/10/21 09:02:27;;;;;;;;;;;;;;;15.98;72.15;98725.22;5037268;28;19921;-62
2023/10/21 09:04:54;;;;;;;;;;;;;;;15.91;72.03;98724.44;5027958;28;19934;-71
2023/10/21 09:07:22;;;;;;;;;;;;;;;15.64;73.10;98735.91;5042626;28;20310;-72
2023/10/21 09:09:51;;;;;;;;;;;;;;;15.64;72.80;98729.56;5053405;28;19940;-72
2023/10/21 09:12:29;;;;;;;;;;;;;;;15.59;72.84;98729.97;5038238;28;19924;-72
2023/10/21 09:14:57;;;;;;;;;;;;;;;15.81;72.14;98730.78;5053278;28;19927;-71
2023/10/21 09:17:38;;;;;;;;;;;;;;;15.74;72.59;98732.34;5046082;28;19929;-71
2023/10/21 09:20:07;;;;;;;;;;;;;;;15.75;72.39;98742.28;5035702;28;19928;-72
2023/10/21 09:22:35;;;;;;;;;;;;;;;15.50;72.99;98722.03;5051984;28;19928;-71
2023/10/21 09:25:15;;;;;;;;;;;;;;;15.89;75.46;98732.34;5053675;28;19921;-71
2023/10/21 09:27:43;;;;;;;;;;;;;;;16.34;72.63;98737.09;5051694;28;19925;-70
2023/10/21 09:30:16;;;;;;;;;;;;;;;16.45;70.63;98729.53;5054062;28;19940;-73
2023/10/21 09:32:44;;;;;;;;;;;;;;;16.65;69.64;98739.81;5035585;28;19925;-72
2023/10/21 09:35:35;;;;;;;;;;;;;;;16.93;67.64;98730.59;5052576;28;19928;-71
2023/10/21 09:38:16;;;;;;;;;;;;;;;16.29;68.37;98743.84;5033645;28;20520;-72
2023/10/21 09:40:43;;;;;;;;;;;;;;;16.12;69.74;98750.22;5033094;28;20296;-74
2023/10/21 09:43:13;;;;;;;;;;;;;;;16.33;69.27;98739.09;5033795;28;19921;-73
2023/10/21 09:45:45;;;;;;;;;;;;;;;16.22;69.58;98754.97;5011620;28;19925;-70
2023/10/21 09:48:13;;;;;;;;;;;;;;;16.33;69.75;98749.41;5018799;28;19928;-71
2023/10/21 09:50:47;;;;;;;;;;;;;;;16.18;69.34;98754.16;5051108;28;19920;-72
2023/10/21 09:53:16;;;;;;;;;;;;;;;16.09;70.08;98744.66;5048357;28;19928;-72
2023/10/21 09:55:43;;;;;;;;;;;;;;;16.04;70.28;98739.50;5052288;28;20285;-72
2023/10/21 09:58:10;;;;;;;;;;;;;;;16.14;69.85;98750.63;5052383;28;19921;-72
2023/10/21 10:00:38;;;;;;;;;;;;;;;15.97;70.97;98770.84;5034703;28;19940;-71
2023/10/21 10:03:05;;;;;;;;;;;;;;;16.16;71.21;98764.88;5052903;28;19921;-72
2023/10/21 10:05:32;;;;;;;;;;;;;;;16.33;71.15;98768.84;5052055;28;19921;-70
2023/10/21 10:08:00;;;;;;;;;;;;;;;16.34;70.93;98757.34;5052818;28;20376;-73
2023/10/21 10:10:31;;;;;;;;;;;;;;;16.06;70.34;98762.91;5053095;28;19924;-73
2023/10/21 10:13:09;;;;;;;;;;;;;;;16.13;70.28;98762.91;5053287;28;19928;-71
2023/10/21 10:15:40;;;;;;;;;;;;;;;16.09;70.77;98766.88;5035423;28;19927;-71
2023/10/21 10:18:08;;;;;;;;;;;;;;;16.26;71.73;98760.53;5049913;28;19925;-69
2023/10/21 10:20:55;;;;;;;;;;;;;;;16.44;70.39;98756.50;5036526;28;20403;-69
2023/10/21 10:23:33;;;;;;;;;;;;;;;16.20;70.70;98760.13;5016539;28;19947;-72
2023/10/21 10:26:03;;;;;;;;;;;;;;;16.37;71.83;98762.09;5030766;28;19921;-69
2023/10/21 10:28:31;;;;;;;;;;;;;;;16.55;70.64;98767.66;5051264;28;19928;-71
2023/10/21 10:31:00;;;;;;;;;;;;;;;16.53;69.94;98751.38;5014312;28;19935;-61
2023/10/21 10:33:38;;;;;;;;;;;;;;;16.48;69.84;98762.91;5052665;28;20431;-60
2023/10/21 10:36:13;;;;;;;;;;;;;;;16.63;69.91;98760.91;5021987;28;19928;-62
2023/10/21 10:38:44;;;;;;;;;;;;;;;16.48;69.15;98765.69;5054039;28;19927;-62
2023/10/21 10:41:15;;;;;;;;;;;;;;;16.50;69.94;98768.06;5035434;28;19921;-62
2023/10/21 10:43:46;;;;;;;;;;;;;;;16.62;68.77;98770.41;5052120;28;19937;-62
2023/10/21 10:46:17;;;;;;;;;;;;;;;16.42;69.27;98783.13;5049950;28;19944;-61
2023/10/21 10:48:47;;;;;;;;;;;;;;;16.47;69.37;98780.78;5030167;28;19929;-63
2023/10/21 10:51:15;;;;;;;;;;;;;;;16.35;69.60;98786.69;5017136;28;19921;-63
2023/10/21 10:53:52;;;;;;;;;;;;;;;16.45;69.24;98799.81;5053485;28;19928;-64
2023/10/21 10:56:19;;;;;;;;;;;;;;;16.50;69.10;98785.53;5035177;28;19933;-64
2023/10/21 10:58:47;;;;;;;;;;;;;;;16.57;68.91;98799.41;5053017;28;19925;-66
2023/10/21 11:01:25;;;;;;;;;;;;;;;16.48;68.44;98785.13;5052373;28;19932;-63
2023/10/21 11:03:55;;;;;;;;;;;;;;;16.57;68.07;98785.53;5019413;28;19925;-65
2023/10/21 11:06:23;;;;;;;;;;;;;;;16.41;68.69;98792.66;5034925;28;19921;-61
2023/10/21 11:08:52;;;;;;;;;;;;;;;16.46;68.17;98778.34;5016844;28;19928;-63
2023/10/21 11:11:19;;;;;;;;;;;;;;;16.28;68.45;98778.41;5034056;28;19928;-63
2023/10/21 11:13:47;;;;;;;;;;;;;;;16.40;67.78;98783.53;5018753;28;19920;-62
2023/10/21 11:16:15;;;;;;;;;;;;;;;16.50;68.49;98768.06;5049760;28;20031;-65
2023/10/21 11:18:42;;;;;;;;;;;;;;;16.40;67.98;98786.31;5049068;28;19921;-62
2023/10/21 11:21:10;;;;;;;;;;;;;;;16.34;68.05;98773.19;5050036;28;19928;-62
2023/10/21 11:23:37;;;;;;;;;;;;;;;16.51;68.14;98780.78;5051381;28;20526;-62
2023/10/21 11:26:10;;;;;;;;;;;;;;;16.56;68.10;98781.13;5050487;28;19927;-63
2023/10/21 11:28:37;;;;;;;;;;;;;;;16.65;67.87;98775.97;5044456;28;19921;-65
2023/10/21 11:31:13;;;;;;;;;;;;;;;16.67;67.96;98789.47;5051117;28;19928;-62
2023/10/21 11:33:43;;;;;;;;;;;;;;;16.64;68.62;98799.41;5051808;28;19929;-66
2023/10/21 11:36:12;;;;;;;;;;;;;;;16.87;67.76;98768.38;4998796;28;20226;-63
2023/10/21 11:39:21;;;;;;;;;;;;;;;16.88;67.38;98771.94;5029389;28;19921;-64
2023/10/21 11:42:02;;;;;;;;;;;;;;;16.87;67.19;98768.38;5018567;28;20377;-63
2023/10/21 11:44:32;;;;;;;;;;;;;;;16.72;66.64;98775.16;5041086;28;19921;-64
2023/10/21 11:47:03;;;;;;;;;;;;;;;16.65;67.84;98781.53;5007108;28;20314;-61
2023/10/21 11:49:37;;;;;;;;;;;;;;;16.58;66.89;98775.97;5046232;28;19940;-61
2023/10/21 11:52:05;;;;;;;;;;;;;;;16.76;67.12;98778.72;5033660;28;19921;-63
2023/10/21 12:08:19;;;;;;;;;;;;;;;16.89;66.27;98807.69;5008465;28;19929;-62
2023/10/21 12:37:20;;;;;;;;;;;;;;;17.27;63.57;98811.53;5034743;28;20351;-61
2023/10/21 12:39:48;;;;;;;;;;;;;;;17.15;64.03;98787.75;5028874;28;19988;-64
2023/10/21 12:42:29;;;;;;;;;;;;;;;17.22;63.77;98778.56;5047827;28;19921;-62
2023/10/21 12:45:01;;;;;;;;;;;;;;;17.47;62.88;98793.97;5050845;28;19927;-63
2023/10/21 12:47:35;;;;;;;;;;;;;;;17.32;63.11;98783.28;5031127;28;19921;-64
2023/10/21 12:50:12;;;;;;;;;;;;;;;17.24;62.42;98790.09;5030251;28;19932;-63
2023/10/21 12:52:47;;;;;;;;;;;;;;;17.37;62.97;98791.19;5052236;28;19921;-63
2023/10/21 12:55:14;;;;;;;;;;;;;;;17.37;62.44;98803.13;5054262;28;20427;-62
2023/10/21 12:57:43;;;;;;;;;;;;;;;17.23;62.93;98797.63;5053031;28;19995;-62
2023/10/21 13:00:11;;;;;;;;;;;;;;;17.31;63.23;98804.75;5050703;28;19921;-62
2023/10/21 13:02:40;;;;;;;;;;;;;;;17.11;63.28;98802.84;5018747;28;19925;-62
2023/10/21 13:05:07;;;;;;;;;;;;;;;17.43;62.35;98795.97;5054792;28;20447;-61
2023/10/21 13:07:35;;;;;;;;;;;;;;;17.51;62.36;98805.88;5054758;28;19921;-61
2023/10/21 13:10:03;;;;;;;;;;;;;;;17.55;62.64;98814.22;5044370;28;19921;-62
2023/10/21 13:12:30;;;;;;;;;;;;;;;17.48;62.58;98817.84;5034338;28;20427;-62
2023/10/21 13:14:57;;;;;;;;;;;;;;;17.56;61.74;98805.44;5018913;28;19932;-63
2023/10/21 13:17:24;;;;;;;;;;;;;;;17.40;62.21;98818.25;5037328;28;19920;-63
2023/10/21 13:19:56;;;;;;;;;;;;;;;17.41;62.66;98811.47;5044336;28;19928;-64
2023/10/21 13:22:23;;;;;;;;;;;;;;;17.37;62.97;98819.03;5055012;28;19928;-63
2023/10/21 13:24:50;;;;;;;;;;;;;;;17.40;63.03;98810.66;5033234;28;19932;-61
2023/10/21 13:27:38;;;;;;;;;;;;;;;17.27;63.67;98811.53;5051259;28;19924;-63
2023/10/21 13:30:13;;;;;;;;;;;;;;;17.50;63.59;98809.06;5052368;28;19921;-62
2023/10/21 13:32:44;;;;;;;;;;;;;;;17.63;62.84;98810.97;5052237;28;20388;-64
2023/10/21 13:35:12;;;;;;;;;;;;;;;17.52;63.21;98818.59;5051498;28;19924;-63